Time;durP1;ratioP1;P1;durP2;ratioP2;P2;SDS_P1;SDS_P2;PMS_P1;PMS_P2;Temp;Humidity;BMP_temperature;BMP_pressure;BME280_temperature;BME280_humidity;BME280_pressure;Samples;Min_cycle;Max_cycle;Signal;HPM_P1;HPM_P2
2022/12/22 03:27:52;;;;;;;9.63;5.47;;;7.90;99.90;;;;;;6120903;23;20451;-62
2022/12/22 03:30:20;;;;;;;11.60;6.00;;;8.00;99.90;;;;;;6120885;23;20427;-63
2022/12/22 03:32:48;;;;;;;11.60;6.07;;;8.00;99.90;;;;;;6120832;23;20474;-62
2022/12/22 03:35:15;;;;;;;7.30;6.20;;;7.90;99.90;;;;;;6120438;23;20444;-62
2022/12/22 03:37:42;;;;;;;11.63;6.63;;;7.90;99.90;;;;;;6120838;23;20411;-63
2022/12/22 03:40:10;;;;;;;9.50;5.53;;;7.90;99.90;;;;;;6119924;23;20432;-59
2022/12/22 03:48:13;;;;;;;7.20;5.00;;;8.00;99.90;;;;;;6120436;23;20458;-64
2022/12/22 03:50:40;;;;;;;6.37;4.87;;;8.10;99.90;;;;;;6120587;23;20376;-62
2022/12/22 03:53:07;;;;;;;10.03;5.53;;;8.10;99.90;;;;;;6121026;23;20402;-61
2022/12/22 03:55:34;;;;;;;10.43;5.30;;;8.10;99.90;;;;;;6121448;23;20422;-61
2022/12/22 03:58:01;;;;;;;9.67;6.40;;;8.10;99.90;;;;;;6120862;23;20379;-63
2022/12/22 04:00:28;;;;;;;8.73;5.40;;;8.10;99.90;;;;;;6120882;23;20419;-61
2022/12/22 04:02:57;;;;;;;9.77;6.20;;;8.10;99.90;;;;;;6120796;23;20423;-61
2022/12/22 04:05:26;;;;;;;6.77;5.20;;;8.00;99.90;;;;;;6120091;23;20404;-64
2022/12/22 04:07:53;;;;;;;11.83;6.57;;;8.00;99.90;;;;;;6120421;23;20408;-63
2022/12/22 04:13:04;;;;;;;7.93;6.30;;;8.00;99.90;;;;;;6121186;23;20394;-63
2022/12/22 04:15:32;;;;;;;7.97;5.93;;;8.00;99.90;;;;;;6120712;23;20418;-63
2022/12/22 04:18:00;;;;;;;8.00;5.90;;;7.90;99.90;;;;;;6115396;23;20384;-63
2022/12/22 04:20:28;;;;;;;10.30;6.20;;;8.00;99.90;;;;;;6117185;23;20415;-65
2022/12/22 04:22:56;;;;;;;11.00;6.60;;;8.00;99.90;;;;;;6117389;23;20423;-65
2022/12/22 04:25:25;;;;;;;10.10;8.20;;;8.00;99.90;;;;;;6121199;23;20395;-62
2022/12/22 04:27:51;;;;;;;10.13;7.60;;;8.00;99.90;;;;;;6120290;23;20431;-63
2022/12/22 04:30:19;;;;;;;11.40;6.70;;;8.00;99.90;;;;;;6119518;23;20452;-61
2022/12/22 04:32:45;;;;;;;11.17;7.80;;;8.00;99.90;;;;;;6120338;23;20395;-61
2022/12/22 04:35:14;;;;;;;10.03;7.13;;;8.00;99.90;;;;;;6119695;23;20732;-61
2022/12/22 04:37:42;;;;;;;10.20;7.50;;;8.00;99.90;;;;;;6120167;23;20412;-63
2022/12/22 04:40:10;;;;;;;12.10;6.93;;;8.10;99.90;;;;;;6119844;23;20411;-61
2022/12/22 04:42:37;;;;;;;10.57;7.23;;;8.10;99.90;;;;;;6120060;23;20443;-62
2022/12/22 04:45:04;;;;;;;10.73;7.93;;;8.10;99.90;;;;;;6119648;23;20403;-62
2022/12/22 04:47:34;;;;;;;11.20;7.23;;;8.10;99.90;;;;;;6120235;23;20415;-63
2022/12/22 04:50:04;;;;;;;9.70;6.57;;;8.10;99.90;;;;;;6119076;23;20451;-62
2022/12/22 04:52:33;;;;;;;10.00;7.23;;;8.10;99.90;;;;;;6119800;23;20407;-63
2022/12/22 04:55:01;;;;;;;10.10;6.33;;;8.20;99.90;;;;;;6120699;23;20404;-61
2022/12/22 04:57:28;;;;;;;10.90;6.40;;;8.20;99.90;;;;;;6111860;23;20415;-62
2022/12/22 04:59:56;;;;;;;9.93;6.00;;;8.20;99.90;;;;;;6119331;23;20403;-62
2022/12/22 05:02:23;;;;;;;20.10;6.93;;;8.20;99.90;;;;;;6118909;23;20467;-63
2022/12/22 05:04:50;;;;;;;9.27;5.97;;;8.30;99.90;;;;;;6120306;23;20388;-63
2022/12/22 05:07:16;;;;;;;9.43;5.60;;;8.30;99.90;;;;;;6120390;23;20396;-63
2022/12/22 05:09:43;;;;;;;9.40;6.10;;;8.30;99.90;;;;;;6119945;23;20462;-63
2022/12/22 05:14:56;;;;;;;10.33;6.97;;;8.20;99.90;;;;;;6120627;23;20383;-62
2022/12/22 05:17:23;;;;;;;11.63;7.43;;;8.20;99.90;;;;;;6120644;23;20419;-61
2022/12/22 05:19:50;;;;;;;11.57;7.27;;;8.20;99.90;;;;;;6119563;23;20395;-60
2022/12/22 05:22:17;;;;;;;12.27;6.87;;;8.20;99.90;;;;;;6118695;23;20427;-62
2022/12/22 05:24:44;;;;;;;15.10;9.23;;;8.20;99.90;;;;;;6120031;23;20440;-62
2022/12/22 05:27:16;;;;;;;11.60;6.87;;;8.20;99.90;;;;;;6113084;23;20438;-60
2022/12/22 05:29:43;;;;;;;9.97;6.93;;;8.20;99.90;;;;;;6119732;23;20455;-62
2022/12/22 05:32:10;;;;;;;10.07;6.00;;;8.20;99.90;;;;;;6120195;23;20414;-62
2022/12/22 05:34:36;;;;;;;14.97;7.70;;;8.20;99.90;;;;;;6120873;23;20383;-63
2022/12/22 05:37:03;;;;;;;11.87;6.90;;;8.30;99.90;;;;;;6123026;23;20427;-63
2022/12/22 05:39:30;;;;;;;9.93;6.40;;;8.30;99.90;;;;;;6123388;23;20399;-61
2022/12/22 05:41:57;;;;;;;23.13;9.27;;;8.20;99.90;;;;;;6123341;23;20402;-58
2022/12/22 05:44:25;;;;;;;14.80;8.57;;;8.20;99.90;;;;;;6124085;23;20408;-60
2022/12/22 05:46:52;;;;;;;17.13;7.30;;;8.20;99.90;;;;;;6124739;23;20414;-62
2022/12/22 05:49:22;;;;;;;13.47;8.40;;;8.20;99.90;;;;;;6123944;23;20435;-61
2022/12/22 05:51:50;;;;;;;15.33;9.10;;;8.30;99.90;;;;;;6124348;23;20391;-64
2022/12/22 05:54:17;;;;;;;15.27;8.47;;;8.30;99.90;;;;;;6125272;23;20418;-67
2022/12/22 05:56:44;;;;;;;14.60;8.60;;;8.30;99.90;;;;;;6124898;23;20419;-61
2022/12/22 05:59:11;;;;;;;16.43;9.17;;;8.30;99.90;;;;;;6123424;23;20407;-67
2022/12/22 06:01:40;;;;;;;15.30;9.90;;;8.30;99.90;;;;;;6123552;23;20387;-57
2022/12/22 06:04:06;;;;;;;14.00;7.03;;;8.30;99.90;;;;;;6123200;23;20422;-63
2022/12/22 06:06:33;;;;;;;14.03;9.33;;;8.30;99.90;;;;;;6115457;23;20415;-60
2022/12/22 06:09:00;;;;;;;14.60;8.33;;;8.30;99.90;;;;;;6122852;23;20506;-62
2022/12/22 06:11:27;;;;;;;18.87;10.50;;;8.30;99.90;;;;;;6122937;23;20392;-61
2022/12/22 06:13:57;;;;;;;19.97;10.03;;;8.30;99.90;;;;;;6123430;23;20411;-59
2022/12/22 06:16:24;;;;;;;19.50;11.27;;;8.30;99.90;;;;;;6123572;23;20439;-63
2022/12/22 06:18:52;;;;;;;18.80;10.77;;;8.30;99.90;;;;;;6123561;23;20411;-65
2022/12/22 06:21:22;;;;;;;12.70;9.30;;;8.30;99.90;;;;;;6122846;23;20407;-64
2022/12/22 06:23:48;;;;;;;16.83;11.20;;;8.30;99.90;;;;;;6124762;23;20408;-63
2022/12/22 06:26:17;;;;;;;18.90;10.30;;;8.30;99.90;;;;;;6125623;23;20387;-60
2022/12/22 06:28:44;;;;;;;14.10;9.20;;;8.20;99.90;;;;;;6125716;23;20439;-60
2022/12/22 06:31:11;;;;;;;15.63;10.73;;;8.20;99.90;;;;;;6117416;23;20403;-64
2022/12/22 06:33:40;;;;;;;15.03;10.17;;;8.20;99.90;;;;;;6125693;23;20395;-65
2022/12/22 06:36:09;;;;;;;17.70;10.13;;;8.20;99.90;;;;;;6125482;23;20378;-60
2022/12/22 06:38:39;;;;;;;17.00;11.10;;;8.20;99.90;;;;;;6125126;23;20399;-58
2022/12/22 06:41:08;;;;;;;14.43;9.03;;;8.20;99.90;;;;;;6124918;23;20427;-63
2022/12/22 06:43:34;;;;;;;15.40;10.57;;;8.20;99.90;;;;;;6124945;23;20403;-64
2022/12/22 06:46:01;;;;;;;17.03;9.63;;;8.20;99.90;;;;;;6119634;23;20492;-64
2022/12/22 06:48:28;;;;;;;14.97;8.40;;;8.20;99.90;;;;;;6115224;23;20402;-62
2022/12/22 06:50:58;;;;;;;18.70;10.43;;;8.20;99.90;;;;;;6122083;23;20453;-61
2022/12/22 06:53:26;;;;;;;16.20;8.87;;;8.30;99.90;;;;;;6122274;23;20414;-63
2022/12/22 06:55:53;;;;;;;12.47;8.47;;;8.20;99.90;;;;;;6120993;23;20399;-64
2022/12/22 06:58:20;;;;;;;15.47;9.67;;;8.20;99.90;;;;;;6121744;23;20431;-63
2022/12/22 07:00:48;;;;;;;14.27;8.73;;;8.30;99.90;;;;;;6122178;23;20396;-64
2022/12/22 07:03:18;;;;;;;17.17;9.37;;;8.30;99.90;;;;;;6120964;23;20420;-64
2022/12/22 07:05:45;;;;;;;21.03;11.33;;;8.30;99.90;;;;;;6112744;23;20408;-63
2022/12/22 07:08:12;;;;;;;15.00;9.13;;;8.30;99.90;;;;;;6122052;23;20403;-61
2022/12/22 07:10:58;;;;;;;14.40;8.70;;;8.30;99.90;;;;;;6121348;23;20439;-63
2022/12/22 07:13:26;;;;;;;14.70;8.43;;;8.30;99.90;;;;;;6121694;23;20411;-62
2022/12/22 07:15:53;;;;;;;19.90;9.47;;;8.20;99.90;;;;;;6121733;23;20395;-64
2022/12/22 07:18:20;;;;;;;14.47;10.03;;;8.20;99.90;;;;;;6121985;23;20407;-63
2022/12/22 07:20:47;;;;;;;17.10;10.53;;;8.20;99.90;;;;;;6122965;23;20435;-61
2022/12/22 07:23:14;;;;;;;16.10;8.43;;;8.20;99.90;;;;;;6122025;23;20408;-60
2022/12/22 07:25:42;;;;;;;13.80;8.50;;;8.20;99.90;;;;;;6122154;23;20427;-62
2022/12/22 07:28:09;;;;;;;13.03;8.00;;;8.20;99.90;;;;;;6123614;23;20416;-60
2022/12/22 07:30:36;;;;;;;14.17;8.93;;;8.20;99.90;;;;;;6124424;23;20491;-65
2022/12/22 07:33:03;;;;;;;13.77;9.07;;;8.20;99.90;;;;;;6112088;23;20407;-63
2022/12/22 07:35:30;;;;;;;13.97;8.33;;;8.20;99.90;;;;;;6121834;23;20404;-61
2022/12/22 07:37:57;;;;;;;12.40;8.90;;;8.30;99.90;;;;;;6121694;23;20431;-67
2022/12/22 07:40:27;;;;;;;21.73;12.60;;;8.30;99.90;;;;;;6115766;23;20438;-63
2022/12/22 07:42:57;;;;;;;16.20;9.27;;;8.30;99.90;;;;;;6121533;23;20434;-61
2022/12/22 07:45:24;;;;;;;14.10;9.20;;;8.30;99.90;;;;;;6121798;23;20407;-64
2022/12/22 07:47:51;;;;;;;15.93;9.37;;;8.30;99.90;;;;;;6115001;23;20432;-63
2022/12/22 07:50:26;;;;;;;13.80;8.50;;;8.30;99.90;;;;;;6121705;23;20440;-66
2022/12/22 07:52:54;;;;;;;16.83;9.97;;;8.30;99.90;;;;;;6115207;23;20406;-62
2022/12/22 07:55:21;;;;;;;17.13;9.90;;;8.20;99.90;;;;;;6121504;23;20411;-64
2022/12/22 07:57:49;;;;;;;14.07;9.90;;;8.20;99.90;;;;;;6121877;23;20399;-62
2022/12/22 08:00:18;;;;;;;15.93;8.17;;;8.20;99.90;;;;;;6120755;23;20465;-62
2022/12/22 08:02:48;;;;;;;16.90;9.80;;;8.20;99.90;;;;;;6121283;23;20425;-60
2022/12/22 08:05:16;;;;;;;19.97;9.43;;;8.20;99.90;;;;;;6121727;23;20447;-63
2022/12/22 08:07:43;;;;;;;15.10;8.93;;;8.20;99.90;;;;;;6121858;23;20404;-63
2022/12/22 08:10:11;;;;;;;17.10;9.37;;;8.20;99.90;;;;;;6121690;23;20459;-63
2022/12/22 08:12:38;;;;;;;17.20;10.47;;;8.10;99.90;;;;;;6121363;23;20410;-63
2022/12/22 08:15:09;;;;;;;17.33;9.50;;;8.20;99.90;;;;;;6119780;23;20431;-62
2022/12/22 08:17:38;;;;;;;15.97;9.40;;;8.20;99.90;;;;;;6121772;23;20388;-62
2022/12/22 08:20:07;;;;;;;20.70;10.07;;;8.20;99.90;;;;;;6120078;23;20439;-61
2022/12/22 08:22:34;;;;;;;24.10;10.33;;;8.20;99.90;;;;;;6121811;23;20408;-64
2022/12/22 08:25:01;;;;;;;16.57;8.70;;;8.30;99.90;;;;;;6121765;23;20443;-63
2022/12/22 08:27:37;;;;;;;15.63;9.73;;;8.20;99.90;;;;;;6113862;23;20422;-61
2022/12/22 08:30:04;;;;;;;18.70;9.50;;;8.20;99.90;;;;;;6121746;23;20438;-58
2022/12/22 08:32:31;;;;;;;22.30;11.90;;;8.20;99.90;;;;;;6122825;23;20382;-59
2022/12/22 08:35:00;;;;;;;16.40;9.77;;;8.20;99.90;;;;;;6122614;23;20414;-58
2022/12/22 08:37:31;;;;;;;17.20;9.57;;;8.20;99.90;;;;;;6123190;23;20435;-60
2022/12/22 08:40:03;;;;;;;17.13;9.97;;;8.20;99.90;;;;;;6122626;23;20617;-63
2022/12/22 08:42:30;;;;;;;13.73;9.70;;;8.30;99.90;;;;;;6122304;23;20376;-60
2022/12/22 08:44:57;;;;;;;19.33;10.30;;;8.30;99.90;;;;;;6121336;23;20414;-62
2022/12/22 08:47:24;;;;;;;14.30;9.00;;;8.30;99.90;;;;;;6119849;23;20431;-59
2022/12/22 08:49:51;;;;;;;17.40;9.43;;;8.30;99.90;;;;;;6121426;23;20447;-63
2022/12/22 08:52:19;;;;;;;19.20;8.93;;;8.30;99.90;;;;;;6117633;23;20407;-62
2022/12/22 08:54:46;;;;;;;16.60;9.27;;;8.30;99.90;;;;;;6120167;23;20415;-61
2022/12/22 08:57:13;;;;;;;19.50;9.77;;;8.30;99.90;;;;;;6119079;23;20432;-64
2022/12/22 08:59:40;;;;;;;19.23;7.23;;;8.30;99.90;;;;;;6120162;23;20438;-64
2022/12/22 09:02:07;;;;;;;22.63;12.83;;;9.40;99.90;;;;;;6119834;23;20438;-66
2022/12/22 09:04:34;;;;;;;19.23;10.40;;;9.80;99.90;;;;;;6120269;23;20380;-62
2022/12/22 09:07:02;;;;;;;15.77;8.67;;;9.50;99.90;;;;;;6120117;23;20407;-63
2022/12/22 09:09:33;;;;;;;14.63;8.10;;;9.30;99.90;;;;;;6118630;23;20404;-66
2022/12/22 09:12:00;;;;;;;14.87;9.10;;;9.10;99.90;;;;;;6117788;23;20424;-62
2022/12/22 09:14:28;;;;;;;13.40;8.53;;;9.00;99.90;;;;;;6121891;23;20489;-56
2022/12/22 09:16:56;;;;;;;14.00;7.90;;;8.90;99.90;;;;;;6121429;23;20379;-61
2022/12/22 09:19:26;;;;;;;11.90;6.80;;;8.80;99.90;;;;;;6121482;23;20408;-60
2022/12/22 09:21:59;;;;;;;12.83;7.87;;;8.70;99.90;;;;;;6121928;23;20392;-62
2022/12/22 09:24:29;;;;;;;14.57;8.23;;;8.70;99.90;;;;;;6122237;23;20415;-58
2022/12/22 09:26:57;;;;;;;9.77;6.83;;;8.70;99.90;;;;;;6122287;23;20415;-59
2022/12/22 09:29:27;;;;;;;12.13;7.90;;;8.70;99.90;;;;;;6122044;23;20380;-62
2022/12/22 09:31:54;;;;;;;23.63;11.20;;;8.80;99.90;;;;;;6122150;23;20499;-62
2022/12/22 09:34:20;;;;;;;15.43;9.03;;;8.80;99.90;;;;;;6122206;23;20404;-64
2022/12/22 09:36:48;;;;;;;9.67;6.97;;;8.80;99.90;;;;;;6121702;23;20387;-62
2022/12/22 09:39:15;;;;;;;11.77;8.33;;;8.80;99.90;;;;;;6122305;23;20375;-59
2022/12/22 09:41:48;;;;;;;13.27;7.40;;;8.80;99.90;;;;;;6121802;23;20403;-62
2022/12/22 09:44:24;;;;;;;12.30;7.70;;;8.90;99.90;;;;;;6121916;23;20400;-65
2022/12/22 09:46:52;;;;;;;13.20;7.57;;;8.90;99.90;;;;;;6120773;23;20411;-60
2022/12/22 09:49:21;;;;;;;10.43;7.63;;;8.90;99.90;;;;;;6122129;23;20411;-64
2022/12/22 09:51:52;;;;;;;11.50;7.70;;;8.90;99.90;;;;;;6121268;23;20444;-62
2022/12/22 09:54:20;;;;;;;10.70;7.47;;;8.90;99.90;;;;;;6121279;23;20392;-61
2022/12/22 09:56:47;;;;;;;11.60;6.30;;;8.90;99.90;;;;;;6120822;23;20424;-59
2022/12/22 09:59:20;;;;;;;11.23;7.70;;;8.90;99.90;;;;;;6121443;23;20407;-63
2022/12/22 10:02:15;;;;;;;16.03;7.57;;;8.90;99.90;;;;;;6121451;23;20495;-56
2022/12/22 10:04:52;;;;;;;14.43;7.60;;;9.00;99.90;;;;;;6121581;23;20427;-55
2022/12/22 10:07:27;;;;;;;15.30;7.47;;;9.00;99.90;;;;;;6119533;23;20427;-54
2022/12/22 10:09:55;;;;;;;11.33;7.00;;;8.90;99.90;;;;;;6121122;23;20423;-55
2022/12/22 10:12:25;;;;;;;13.20;9.17;;;9.00;99.90;;;;;;6114616;23;20432;-59
2022/12/22 10:14:54;;;;;;;11.20;8.00;;;9.00;99.90;;;;;;6118609;23;20407;-58
2022/12/22 10:17:25;;;;;;;10.70;7.20;;;9.10;99.90;;;;;;6118401;23;20480;-52
2022/12/22 10:19:54;;;;;;;15.03;8.13;;;9.10;99.90;;;;;;6120402;23;20661;-53
2022/12/22 10:22:28;;;;;;;10.10;7.27;;;9.20;99.90;;;;;;6120508;23;20400;-53
2022/12/22 10:25:00;;;;;;;13.90;8.43;;;9.20;99.90;;;;;;6121593;23;20608;-57
2022/12/22 10:27:31;;;;;;;15.40;8.37;;;9.20;99.90;;;;;;6121441;23;20902;-53
2022/12/22 10:30:22;;;;;;;10.17;6.93;;;9.20;99.90;;;;;;6121826;23;20459;-54
2022/12/22 10:33:06;;;;;;;14.87;8.53;;;9.20;99.90;;;;;;6121519;23;20384;-57
2022/12/22 10:35:49;;;;;;;8.07;5.40;;;9.20;99.90;;;;;;6120970;23;20427;-57
2022/12/22 10:38:20;;;;;;;13.43;7.20;;;9.30;99.90;;;;;;6121053;23;20391;-55
2022/12/22 10:40:50;;;;;;;9.47;6.30;;;9.20;99.90;;;;;;6122084;23;20399;-56
2022/12/22 10:43:23;;;;;;;10.33;6.47;;;9.30;99.90;;;;;;6122293;23;20399;-52
2022/12/22 10:45:53;;;;;;;8.47;6.00;;;9.30;99.90;;;;;;6121568;23;20400;-56
2022/12/22 10:48:27;;;;;;;9.13;6.07;;;9.30;99.90;;;;;;6121242;23;20439;-56
2022/12/22 10:50:55;;;;;;;7.00;5.03;;;9.30;99.90;;;;;;6122543;23;20454;-57
2022/12/22 10:53:22;;;;;;;9.43;6.50;;;9.30;99.90;;;;;;6122354;23;20442;-55
2022/12/22 10:56:05;;;;;;;9.17;6.77;;;9.30;99.90;;;;;;6121868;23;20918;-56
2022/12/22 10:58:47;;;;;;;9.40;6.60;;;9.30;99.90;;;;;;6121577;23;20391;-55
2022/12/22 11:01:24;;;;;;;6.57;5.17;;;9.30;99.90;;;;;;6121461;23;20467;-56
2022/12/22 11:03:51;;;;;;;8.50;4.87;;;9.30;99.90;;;;;;6120625;23;20394;-53
2022/12/22 11:06:19;;;;;;;10.17;5.40;;;9.30;99.90;;;;;;6121108;23;20403;-56
2022/12/22 11:08:49;;;;;;;7.53;5.20;;;9.30;99.90;;;;;;6120756;23;20459;-54
2022/12/22 11:11:30;;;;;;;13.63;7.37;;;9.30;99.90;;;;;;6120784;23;20458;-55
2022/12/22 11:14:09;;;;;;;9.67;6.70;;;9.30;99.90;;;;;;6121969;23;20599;-54
2022/12/22 11:16:45;;;;;;;7.57;5.53;;;9.30;99.90;;;;;;6120647;23;20451;-54
2022/12/22 11:19:29;;;;;;;7.20;6.03;;;9.40;99.90;;;;;;6121729;23;20392;-56
2022/12/22 11:22:02;;;;;;;8.63;6.33;;;9.50;99.90;;;;;;6122144;23;20482;-62
2022/12/22 11:24:37;;;;;;;9.87;5.10;;;9.50;99.90;;;;;;6121958;23;20408;-54
2022/12/22 11:27:19;;;;;;;8.97;6.33;;;9.60;99.90;;;;;;6121033;23;20398;-55
2022/12/22 11:30:07;;;;;;;6.80;4.90;;;9.70;99.90;;;;;;6119960;23;20424;-56
2022/12/22 11:33:05;;;;;;;6.20;5.20;;;9.70;99.90;;;;;;6120034;23;20391;-53
2022/12/22 11:35:47;;;;;;;8.73;6.00;;;9.70;99.90;;;;;;6120097;23;20435;-54
2022/12/22 11:38:26;;;;;;;5.43;4.80;;;9.80;99.90;;;;;;6121346;23;20388;-51
2022/12/22 11:41:00;;;;;;;5.67;5.13;;;9.80;99.90;;;;;;6121579;23;20431;-56
2022/12/22 11:43:42;;;;;;;6.93;5.00;;;9.80;99.90;;;;;;6121553;23;20454;-57
2022/12/22 11:46:21;;;;;;;10.17;4.77;;;9.90;99.90;;;;;;6115857;23;20459;-56
2022/12/22 11:49:22;;;;;;;6.90;5.07;;;9.90;99.90;;;;;;6122056;23;20391;-56
2022/12/22 11:52:03;;;;;;;6.90;5.20;;;9.90;99.90;;;;;;6024725;23;20455;-58
2022/12/22 11:54:47;;;;;;;9.17;5.70;;;9.90;99.90;;;;;;6122416;23;20384;-60
2022/12/22 11:57:24;;;;;;;7.67;6.60;;;9.90;99.90;;;;;;6121774;23;20427;-54
2022/12/22 12:00:02;;;;;;;9.17;5.40;;;9.90;99.90;;;;;;6121830;23;20383;-61
2022/12/22 12:03:06;;;;;;;6.33;4.70;;;9.90;99.90;;;;;;6121971;23;20399;-54
2022/12/22 12:06:11;;;;;;;8.67;5.63;;;10.00;99.90;;;;;;6120645;23;20407;-56
2022/12/22 12:08:54;;;;;;;9.00;5.10;;;10.00;99.90;;;;;;6071240;23;20427;-54
2022/12/22 12:11:29;;;;;;;8.23;5.30;;;10.00;99.90;;;;;;6121339;23;20413;-56
2022/12/22 12:14:05;;;;;;;5.57;4.70;;;9.90;99.90;;;;;;6116168;23;20391;-56
2022/12/22 12:16:39;;;;;;;8.87;5.97;;;9.90;99.90;;;;;;6120739;23;20398;-57
2022/12/22 12:19:41;;;;;;;9.27;6.13;;;10.00;99.90;;;;;;6121919;23;20391;-62
2022/12/22 12:22:19;;;;;;;10.07;5.83;;;10.00;99.90;;;;;;6076006;23;20491;-54
2022/12/22 12:24:54;;;;;;;6.00;4.90;;;10.00;99.90;;;;;;6112583;23;20391;-53
2022/12/22 12:27:38;;;;;;;7.30;5.77;;;10.00;99.90;;;;;;6120379;23;20431;-55
2022/12/22 12:30:11;;;;;;;6.90;5.73;;;10.00;99.90;;;;;;6113771;23;20396;-62
2022/12/22 12:32:44;;;;;;;6.57;5.07;;;10.00;99.90;;;;;;6122026;23;20451;-54
2022/12/22 12:35:31;;;;;;;7.60;5.80;;;10.00;99.90;;;;;;6120989;23;20372;-59
2022/12/22 12:38:05;;;;;;;6.80;5.20;;;10.00;99.90;;;;;;6121472;23;20443;-54
2022/12/22 12:40:39;;;;;;;8.87;5.50;;;10.00;99.90;;;;;;6115474;23;20395;-54
2022/12/22 12:43:12;;;;;;;7.07;5.57;;;10.00;99.90;;;;;;6120318;23;20388;-57
2022/12/22 12:45:41;;;;;;;10.10;6.33;;;10.00;99.90;;;;;;6120115;23;20388;-58
2022/12/22 12:48:40;;;;;;;7.83;5.53;;;10.00;99.90;;;;;;6121695;23;20403;-58
2022/12/22 12:51:40;;;;;;;7.63;5.83;;;10.10;99.90;;;;;;6121496;23;20506;-59
2022/12/22 12:54:45;;;;;;;6.50;5.60;;;10.10;99.90;;;;;;6112594;23;20422;-56
2022/12/22 12:57:29;;;;;;;8.97;5.67;;;10.10;99.90;;;;;;6004468;24;20443;-56
2022/12/22 12:59:58;;;;;;;6.97;5.10;;;10.00;99.90;;;;;;6112536;23;20424;-57
2022/12/22 13:02:55;;;;;;;6.50;4.97;;;10.10;99.90;;;;;;6118943;23;20407;-57
2022/12/22 13:05:35;;;;;;;7.80;4.70;;;10.10;99.90;;;;;;6119579;23;20380;-56
2022/12/22 13:08:22;;;;;;;9.20;5.03;;;10.10;99.90;;;;;;6120676;23;20427;-57
2022/12/22 13:11:31;;;;;;;8.83;5.90;;;10.10;99.90;;;;;;6121193;23;20430;-56
2022/12/22 13:13:59;;;;;;;7.70;5.27;;;10.10;99.90;;;;;;6120833;23;20411;-58
2022/12/22 13:16:35;;;;;;;6.73;4.87;;;10.10;99.90;;;;;;6121057;23;20400;-58
2022/12/22 13:19:21;;;;;;;8.33;5.93;;;10.10;99.90;;;;;;6119418;23;20427;-57
2022/12/22 13:21:48;;;;;;;6.63;5.30;;;10.10;99.90;;;;;;6120781;23;20375;-56
2022/12/22 13:24:22;;;;;;;6.93;4.53;;;10.20;99.90;;;;;;6121813;23;20391;-56
2022/12/22 13:26:55;;;;;;;7.30;5.03;;;10.20;99.90;;;;;;6120440;23;20388;-57
2022/12/22 13:29:30;;;;;;;8.60;5.73;;;10.20;99.90;;;;;;6120620;23;20376;-58
2022/12/22 13:32:01;;;;;;;6.00;4.30;;;10.20;99.90;;;;;;6119620;23;20427;-57
2022/12/22 13:34:45;;;;;;;5.83;5.00;;;10.10;99.90;;;;;;6113615;23;20684;-57
2022/12/22 13:37:19;;;;;;;7.30;5.50;;;10.10;99.90;;;;;;6120607;23;20498;-56
2022/12/22 13:40:09;;;;;;;5.57;4.50;;;10.10;99.90;;;;;;6119621;23;20391;-56
2022/12/22 13:42:41;;;;;;;10.50;5.27;;;10.10;99.90;;;;;;6114500;23;20436;-53
2022/12/22 13:45:17;;;;;;;9.83;4.97;;;10.10;99.90;;;;;;6120862;23;20395;-58
2022/12/22 13:47:47;;;;;;;6.50;4.70;;;10.10;99.90;;;;;;6120764;23;20431;-57
2022/12/22 13:50:20;;;;;;;7.43;4.80;;;10.10;99.90;;;;;;6121152;23;20387;-56
2022/12/22 13:52:48;;;;;;;6.83;5.20;;;10.10;99.90;;;;;;6112942;23;20427;-57
2022/12/22 13:55:20;;;;;;;8.87;5.37;;;10.00;99.90;;;;;;6121256;23;20404;-57
2022/12/22 13:57:50;;;;;;;7.77;5.03;;;10.10;99.90;;;;;;6122161;23;20559;-56
2022/12/22 14:00:22;;;;;;;10.43;5.73;;;10.00;99.90;;;;;;6122083;23;20427;-57
2022/12/22 14:02:49;;;;;;;6.87;5.30;;;10.00;99.90;;;;;;6123282;23;20364;-55
2022/12/22 14:05:16;;;;;;;8.30;4.80;;;10.00;99.90;;;;;;6121232;23;20451;-58
2022/12/22 14:08:01;;;;;;;12.30;5.33;;;10.00;99.90;;;;;;6122077;23;20375;-55
2022/12/22 14:10:32;;;;;;;7.60;5.53;;;10.00;99.90;;;;;;6121311;23;20407;-54
2022/12/22 14:13:06;;;;;;;6.00;4.70;;;10.00;99.90;;;;;;6121462;23;20495;-55
2022/12/22 14:15:33;;;;;;;8.20;5.40;;;10.00;99.90;;;;;;6121821;23;20526;-57
2022/12/22 14:18:00;;;;;;;9.93;5.60;;;9.90;99.90;;;;;;6116664;23;20431;-55
2022/12/22 14:20:29;;;;;;;7.43;4.30;;;10.00;99.90;;;;;;6122697;23;20388;-57
2022/12/22 14:22:58;;;;;;;6.20;4.40;;;9.90;99.90;;;;;;6122590;23;20447;-56
2022/12/22 14:25:30;;;;;;;7.23;4.70;;;9.90;99.90;;;;;;6123294;23;20408;-53
2022/12/22 14:27:58;;;;;;;7.60;5.63;;;9.90;99.90;;;;;;6121553;23;20419;-54
2022/12/22 14:30:29;;;;;;;8.27;4.73;;;9.80;99.90;;;;;;6120970;23;20395;-58
2022/12/22 14:32:56;;;;;;;7.27;5.37;;;9.80;99.90;;;;;;6120883;23;20435;-56
2022/12/22 14:35:30;;;;;;;6.60;4.63;;;9.80;99.90;;;;;;6120773;23;20443;-58
2022/12/22 14:38:21;;;;;;;5.77;4.47;;;9.80;99.90;;;;;;6121361;23;21029;-56
2022/12/22 14:40:49;;;;;;;8.40;4.10;;;9.80;99.90;;;;;;6122148;23;20442;-55
2022/12/22 14:43:27;;;;;;;5.97;4.30;;;9.80;99.90;;;;;;6122925;23;20406;-55
2022/12/22 14:48:33;;;;;;;6.03;4.00;;;9.80;99.90;;;;;;6110952;23;20455;-55
2022/12/22 14:51:01;;;;;;;5.00;3.60;;;9.80;99.90;;;;;;6119982;23;20399;-57
2022/12/22 14:53:37;;;;;;;6.30;4.50;;;9.80;99.90;;;;;;6121156;23;20403;-57
2022/12/22 14:56:04;;;;;;;3.33;3.00;;;9.70;99.90;;;;;;6115068;23;20372;-55
2022/12/22 14:58:33;;;;;;;5.37;4.07;;;9.70;99.90;;;;;;6119835;23;20441;-56
2022/12/22 15:01:15;;;;;;;4.83;3.07;;;9.70;99.90;;;;;;6121351;23;20407;-56
2022/12/22 15:03:44;;;;;;;3.37;3.07;;;9.70;99.90;;;;;;6120663;23;20402;-55
2022/12/22 15:06:33;;;;;;;5.10;3.50;;;9.60;99.90;;;;;;6120652;23;20439;-57
2022/12/22 15:09:10;;;;;;;4.10;3.23;;;9.60;99.90;;;;;;6120709;23;20387;-58
2022/12/22 15:11:42;;;;;;;4.20;3.23;;;9.60;99.90;;;;;;6120652;23;20446;-55
2022/12/22 15:14:14;;;;;;;4.43;3.00;;;9.60;99.90;;;;;;6120108;23;20537;-55
2022/12/22 15:16:41;;;;;;;4.50;3.43;;;9.60;99.90;;;;;;6118376;23;20447;-53
2022/12/22 15:19:12;;;;;;;5.63;3.20;;;9.60;99.90;;;;;;6117400;23;20411;-56
2022/12/22 15:21:39;;;;;;;4.67;3.37;;;9.60;99.90;;;;;;6120707;23;20392;-58
2022/12/22 15:24:11;;;;;;;3.33;2.50;;;9.60;99.90;;;;;;6120893;23;20407;-60
2022/12/22 15:26:39;;;;;;;3.50;2.63;;;9.60;99.90;;;;;;6121369;23;20498;-55
2022/12/22 15:29:07;;;;;;;4.83;3.67;;;9.50;99.90;;;;;;6120400;23;20463;-58
2022/12/22 15:31:35;;;;;;;5.90;3.70;;;9.50;99.90;;;;;;6121110;23;20435;-57
2022/12/22 15:34:06;;;;;;;3.70;2.97;;;9.50;99.90;;;;;;6122027;23;20422;-56
2022/12/22 15:36:35;;;;;;;7.33;3.40;;;9.50;99.90;;;;;;6120794;23;20388;-56
2022/12/22 15:39:02;;;;;;;5.43;3.27;;;9.60;99.90;;;;;;6120876;23;20411;-59
2022/12/22 15:41:30;;;;;;;6.80;3.80;;;9.60;99.90;;;;;;6121044;23;20435;-57
2022/12/22 15:43:57;;;;;;;5.40;4.40;;;9.60;99.90;;;;;;6121755;23;20400;-57
2022/12/22 15:46:24;;;;;;;5.13;4.63;;;9.60;99.90;;;;;;6121545;23;20411;-57
2022/12/22 15:48:51;;;;;;;6.33;3.90;;;9.60;99.90;;;;;;6122495;23;20460;-58
2022/12/22 15:51:22;;;;;;;5.83;4.63;;;9.60;99.90;;;;;;6121281;23;20412;-57
2022/12/22 15:53:51;;;;;;;5.80;4.63;;;9.60;99.90;;;;;;6122108;23;20431;-56
2022/12/22 15:56:21;;;;;;;7.67;5.03;;;9.60;99.90;;;;;;6116636;23;20414;-56
2022/12/22 15:58:49;;;;;;;7.90;5.13;;;9.50;99.90;;;;;;6118510;23;20392;-56
2022/12/22 16:01:16;;;;;;;8.33;4.47;;;9.50;99.90;;;;;;6118920;23;20506;-54
2022/12/22 16:03:44;;;;;;;6.70;4.40;;;9.50;99.90;;;;;;6118240;23;20399;-56
2022/12/22 16:06:13;;;;;;;8.00;4.83;;;9.50;99.90;;;;;;6122026;23;20410;-57
2022/12/22 16:08:42;;;;;;;5.93;4.63;;;9.50;99.90;;;;;;6121898;23;20395;-57
2022/12/22 16:11:10;;;;;;;8.57;5.17;;;9.50;99.90;;;;;;6122041;23;20411;-57
2022/12/22 16:13:38;;;;;;;6.80;5.30;;;9.50;99.90;;;;;;6117682;23;20447;-57
2022/12/22 16:16:07;;;;;;;8.07;6.03;;;9.40;99.90;;;;;;6121831;23;20870;-58
2022/12/22 16:18:34;;;;;;;8.17;5.30;;;9.40;99.90;;;;;;6122055;23;20432;-57
2022/12/22 16:21:06;;;;;;;10.80;6.43;;;9.40;99.90;;;;;;6122223;23;20418;-56
2022/12/22 16:23:34;;;;;;;8.60;5.57;;;9.40;99.90;;;;;;6122982;23;20406;-55
2022/12/22 16:26:01;;;;;;;8.90;6.07;;;9.40;99.90;;;;;;6122073;23;20427;-57
2022/12/22 16:28:37;;;;;;;11.70;6.10;;;9.40;99.90;;;;;;6121788;23;20387;-55
2022/12/22 16:31:04;;;;;;;9.67;6.03;;;9.40;99.90;;;;;;6121378;23;20419;-58
2022/12/22 16:33:30;;;;;;;9.17;6.23;;;9.30;99.90;;;;;;6121824;23;20443;-57
2022/12/22 16:35:57;;;;;;;14.50;8.13;;;9.30;99.90;;;;;;6121283;23;20414;-58
2022/12/22 16:38:24;;;;;;;12.87;7.67;;;9.30;99.90;;;;;;6114686;23;20426;-56
2022/12/22 16:40:53;;;;;;;14.23;7.07;;;9.40;99.90;;;;;;6123167;23;20418;-54
2022/12/22 16:43:23;;;;;;;13.03;8.53;;;9.30;99.90;;;;;;6121555;23;20475;-58
2022/12/22 16:45:52;;;;;;;12.77;8.07;;;9.30;99.90;;;;;;6122348;23;20448;-57
2022/12/22 16:48:26;;;;;;;14.97;7.87;;;9.30;99.90;;;;;;6121584;23;20411;-50
2022/12/22 16:50:56;;;;;;;13.70;7.27;;;9.40;99.90;;;;;;6121940;23;20384;-57
2022/12/22 16:53:23;;;;;;;10.40;7.00;;;9.30;99.90;;;;;;6123155;23;20431;-58